createdAt,value
2022-07-30T00:01:35.967Z,15.10
2022-07-30T00:04:04.237Z,15.10
2022-07-30T00:06:31.699Z,15.10
2022-07-30T00:08:58.944Z,15.00
2022-07-30T00:11:28.087Z,14.90
2022-07-30T00:13:56.086Z,14.90
2022-07-30T00:16:23.546Z,14.90
2022-07-30T00:18:51.634Z,14.80
2022-07-30T00:21:20.179Z,14.80
2022-07-30T00:24:03.590Z,14.70
2022-07-30T00:26:30.789Z,14.70
2022-07-30T00:28:58.008Z,14.60
2022-07-30T00:31:25.465Z,14.50
2022-07-30T00:33:52.717Z,14.50
2022-07-30T00:36:20.196Z,14.50
2022-07-30T00:38:47.739Z,14.40
2022-07-30T00:41:15.594Z,14.40
2022-07-30T00:43:44.055Z,14.40
2022-07-30T00:46:11.681Z,14.40
2022-07-30T00:48:39.136Z,14.40
2022-07-30T00:51:06.946Z,14.40
2022-07-30T00:53:35.275Z,14.40
2022-07-30T00:56:03.214Z,14.40
2022-07-30T00:58:30.716Z,14.30
2022-07-30T01:00:58.453Z,14.30
2022-07-30T01:03:25.783Z,14.20
2022-07-30T01:05:53.050Z,14.20
2022-07-30T01:08:20.450Z,14.30
2022-07-30T01:10:47.737Z,14.30
2022-07-30T01:13:14.892Z,14.20
2022-07-30T01:15:42.727Z,14.20
2022-07-30T01:18:13.746Z,14.20
2022-07-30T01:20:54.958Z,14.20
2022-07-30T01:23:35.813Z,14.20
2022-07-30T01:26:07.645Z,14.20
2022-07-30T01:28:38.608Z,14.20
2022-07-30T01:31:08.015Z,14.00
2022-07-30T01:33:40.052Z,14.00
2022-07-30T01:36:10.701Z,13.90
2022-07-30T01:38:41.631Z,13.80
2022-07-30T01:41:09.686Z,13.70
2022-07-30T01:43:38.181Z,13.70
2022-07-30T01:46:06.777Z,13.60
2022-07-30T01:48:37.322Z,13.60
2022-07-30T01:51:09.113Z,13.60
2022-07-30T01:53:40.846Z,13.50
2022-07-30T01:56:11.897Z,13.40
2022-07-30T01:58:42.223Z,13.40
2022-07-30T02:01:19.794Z,13.40
2022-07-30T02:03:47.878Z,13.20
2022-07-30T02:06:21.574Z,13.30
2022-07-30T02:08:55.277Z,13.20
2022-07-30T02:11:43.447Z,13.10
2022-07-30T02:14:23.913Z,13.10
2022-07-30T02:16:54.568Z,13.10
2022-07-30T02:19:34.306Z,12.90
2022-07-30T02:22:08.520Z,12.90
2022-07-30T02:24:38.778Z,13.00
2022-07-30T02:27:12.616Z,12.90
2022-07-30T02:29:42.734Z,12.80
2022-07-30T02:32:15.300Z,12.80
2022-07-30T02:34:47.445Z,12.80
2022-07-30T02:37:15.673Z,12.70
2022-07-30T02:39:44.347Z,12.80
2022-07-30T02:42:14.743Z,12.70
2022-07-30T02:44:44.782Z,12.70
2022-07-30T02:47:17.029Z,12.70
2022-07-30T02:50:03.627Z,12.70
2022-07-30T02:52:33.092Z,12.60
2022-07-30T02:55:02.478Z,12.60
2022-07-30T02:57:31.658Z,12.60
2022-07-30T03:00:00.025Z,12.60
2022-07-30T03:02:29.818Z,12.60
2022-07-30T03:05:01.385Z,12.60
2022-07-30T03:07:29.894Z,12.60
2022-07-30T03:09:58.139Z,12.60
2022-07-30T03:12:31.531Z,12.60
2022-07-30T03:14:59.267Z,12.60
2022-07-30T03:17:31.688Z,12.60
2022-07-30T03:20:04.495Z,12.50
2022-07-30T03:22:35.953Z,12.50
2022-07-30T03:25:04.563Z,12.50
2022-07-30T03:27:33.021Z,12.60
2022-07-30T03:30:02.568Z,12.50
2022-07-30T03:32:31.637Z,12.60
2022-07-30T03:35:05.978Z,12.60
2022-07-30T03:37:40.281Z,12.60
2022-07-30T03:40:08.514Z,12.60
2022-07-30T03:42:37.046Z,12.70
2022-07-30T03:45:07.584Z,13.30
2022-07-30T03:47:38.577Z,12.80
2022-07-30T03:50:07.068Z,12.90
2022-07-30T03:52:41.011Z,13.00
2022-07-30T03:55:12.698Z,13.10
2022-07-30T03:57:49.165Z,13.10
2022-07-30T04:00:18.640Z,13.20
2022-07-30T04:02:50.935Z,13.30
2022-07-30T04:05:47.492Z,13.30
2022-07-30T04:08:14.896Z,13.40
2022-07-30T04:10:44.249Z,13.40
2022-07-30T04:13:30.320Z,13.50
2022-07-30T04:16:38.873Z,13.60
2022-07-30T04:19:09.805Z,13.70
2022-07-30T04:21:40.376Z,13.80
2022-07-30T04:24:11.252Z,13.90
2022-07-30T04:26:39.299Z,14.10
2022-07-30T04:29:09.566Z,14.20
2022-07-30T04:31:44.153Z,14.40
2022-07-30T04:34:30.036Z,14.50
2022-07-30T04:36:58.252Z,14.70
2022-07-30T04:39:26.032Z,14.80
2022-07-30T04:41:53.847Z,14.90
2022-07-30T04:44:29.389Z,15.10
2022-07-30T04:47:23.730Z,15.20
2022-07-30T04:50:12.004Z,15.20
2022-07-30T04:52:40.179Z,15.30
2022-07-30T04:55:10.383Z,15.40
2022-07-30T04:57:40.265Z,15.40
2022-07-30T05:00:09.460Z,15.50
2022-07-30T05:02:41.823Z,15.60
2022-07-30T05:05:10.945Z,15.70
2022-07-30T05:07:39.687Z,15.70
2022-07-30T05:10:11.130Z,15.80
2022-07-30T05:12:39.060Z,15.70
2022-07-30T05:15:09.324Z,15.80
2022-07-30T05:17:37.680Z,15.90
2022-07-30T05:20:10.462Z,15.90
2022-07-30T05:23:07.090Z,16.00
2022-07-30T05:25:34.698Z,16.10
2022-07-30T05:28:34.486Z,16.20
2022-07-30T05:31:08.086Z,16.20
2022-07-30T05:33:41.109Z,16.40
2022-07-30T05:36:12.023Z,16.50
2022-07-30T05:38:40.923Z,16.60
2022-07-30T05:41:34.426Z,16.70
2022-07-30T05:44:23.634Z,16.70
2022-07-30T05:46:52.414Z,16.90
2022-07-30T05:49:20.347Z,17.10
2022-07-30T05:51:49.901Z,17.20
2022-07-30T05:54:21.065Z,17.40
2022-07-30T05:56:58.807Z,17.50
2022-07-30T05:59:32.135Z,17.40
2022-07-30T06:02:01.929Z,17.50
2022-07-30T06:04:38.325Z,17.50
2022-07-30T06:07:14.248Z,17.50
2022-07-30T06:09:41.630Z,17.50
2022-07-30T06:12:10.183Z,17.70
2022-07-30T06:14:37.685Z,17.70
2022-07-30T06:17:22.674Z,17.80
2022-07-30T06:20:15.711Z,17.90
2022-07-30T06:23:03.768Z,18.10
2022-07-30T06:25:56.237Z,18.30
2022-07-30T06:28:39.530Z,18.40
2022-07-30T06:31:31.277Z,18.50
2022-07-30T06:33:58.941Z,19.00
2022-07-30T06:36:30.773Z,19.30
2022-07-30T06:39:02.596Z,19.50
2022-07-30T06:41:45.177Z,19.50
2022-07-30T06:44:14.673Z,19.50
2022-07-30T06:47:06.831Z,19.80
2022-07-30T06:49:36.354Z,19.60
2022-07-30T06:52:05.368Z,19.70
2022-07-30T06:54:33.545Z,19.60
2022-07-30T07:00:02.020Z,19.70
2022-07-30T07:02:52.197Z,19.80
2022-07-30T07:05:29.823Z,20.10
2022-07-30T07:08:27.569Z,20.20
2022-07-30T07:10:58.911Z,20.20
2022-07-30T07:13:32.165Z,20.50
2022-07-30T07:16:02.798Z,20.60
2022-07-30T07:18:31.853Z,20.60
2022-07-30T07:21:04.159Z,20.80
2022-07-30T07:23:41.342Z,21.00
2022-07-30T07:26:44.539Z,21.30
2022-07-30T07:29:13.590Z,21.40
2022-07-30T07:32:05.583Z,21.60
2022-07-30T07:34:35.640Z,21.80
2022-07-30T07:37:04.377Z,22.30
2022-07-30T07:39:32.173Z,22.40
2022-07-30T07:42:01.743Z,22.50
2022-07-30T07:44:32.254Z,22.60
2022-07-30T07:47:02.314Z,22.80
2022-07-30T07:49:37.833Z,22.90
2022-07-30T07:52:06.495Z,23.20
2022-07-30T07:54:35.609Z,23.40
2022-07-30T07:57:08.006Z,23.70
2022-07-30T07:59:41.667Z,24.10
2022-07-30T08:02:19.137Z,24.50
2022-07-30T08:04:55.222Z,25.20
2022-07-30T08:07:43.868Z,25.40
2022-07-30T08:10:29.743Z,25.80
2022-07-30T08:13:49.228Z,26.00
2022-07-30T08:16:26.118Z,26.10
2022-07-30T08:19:12.317Z,25.70
2022-07-30T08:21:50.927Z,25.40
2022-07-30T08:24:26.134Z,25.30
2022-07-30T08:26:59.023Z,25.70
2022-07-30T08:29:28.065Z,26.40
2022-07-30T08:31:56.370Z,26.80
2022-07-30T08:34:28.052Z,26.80
2022-07-30T08:44:24.595Z,26.80
2022-07-30T08:46:56.459Z,26.40
2022-07-30T08:49:50.622Z,25.90
2022-07-30T08:52:24.562Z,25.50
2022-07-30T08:55:02.686Z,25.10
2022-07-30T08:57:31.282Z,25.30
2022-07-30T09:00:01.353Z,25.40
2022-07-30T09:02:33.696Z,25.40
2022-07-30T09:05:06.006Z,25.90
2022-07-30T09:07:35.235Z,25.90
2022-07-30T09:10:05.882Z,25.60
2022-07-30T09:12:47.262Z,25.40
2022-07-30T09:15:21.365Z,25.60
2022-07-30T09:17:57.814Z,25.10
2022-07-30T09:20:34.299Z,24.80
2022-07-30T09:23:06.579Z,24.80
2022-07-30T09:25:52.480Z,24.90
2022-07-30T09:28:40.081Z,25.10
2022-07-30T09:31:17.956Z,25.00
2022-07-30T09:34:23.531Z,25.00
2022-07-30T09:37:12.585Z,24.80
2022-07-30T09:40:10.611Z,24.80
2022-07-30T09:43:07.573Z,24.80
2022-07-30T09:45:57.981Z,24.70
2022-07-30T09:48:27.867Z,24.60
2022-07-30T09:50:57.650Z,24.40
2022-07-30T09:53:26.407Z,24.40
2022-07-30T09:55:53.704Z,24.40
2022-07-30T09:58:27.417Z,24.70
2022-07-30T10:00:59.784Z,24.70
2022-07-30T10:03:49.112Z,24.90
2022-07-30T10:06:45.229Z,25.20
2022-07-30T10:09:32.832Z,25.30
2022-07-30T10:12:10.370Z,25.50
2022-07-30T10:14:44.985Z,25.70
2022-07-30T10:17:17.993Z,25.90
2022-07-30T10:20:08.913Z,25.90
2022-07-30T10:22:55.496Z,25.50
2022-07-30T10:25:35.482Z,25.40
2022-07-30T10:28:22.968Z,25.40
2022-07-30T10:30:53.171Z,25.40
2022-07-30T10:33:37.495Z,25.30
2022-07-30T10:36:14.547Z,25.10
2022-07-30T10:38:45.246Z,25.10
2022-07-30T10:41:22.283Z,25.10
2022-07-30T10:44:41.883Z,25.10
2022-07-30T10:47:14.191Z,25.20
2022-07-30T10:49:43.372Z,25.30
2022-07-30T10:52:12.119Z,25.30
2022-07-30T10:54:47.525Z,25.30
2022-07-30T10:57:31.868Z,25.30
2022-07-30T11:00:00.747Z,25.30
2022-07-30T11:02:30.741Z,25.50
2022-07-30T11:05:18.258Z,25.60
2022-07-30T11:07:48.086Z,25.60
2022-07-30T11:10:37.558Z,25.30
2022-07-30T11:13:08.723Z,25.20
2022-07-30T11:16:00.262Z,24.90
2022-07-30T11:18:29.070Z,24.70
2022-07-30T11:21:15.288Z,24.40
2022-07-30T11:23:46.378Z,24.40
2022-07-30T11:26:46.909Z,24.40
2022-07-30T11:29:35.112Z,24.30
2022-07-30T11:32:29.646Z,24.00
2022-07-30T11:35:19.159Z,24.00
2022-07-30T11:38:18.968Z,24.10
2022-07-30T11:40:48.901Z,23.90
2022-07-30T11:43:35.221Z,23.90
2022-07-30T11:46:28.781Z,23.80
2022-07-30T11:49:13.937Z,23.80
2022-07-30T11:52:43.835Z,23.90
2022-07-30T11:56:15.036Z,23.80
2022-07-30T12:13:04.171Z,23.50
2022-07-30T12:15:44.971Z,23.30
2022-07-30T12:18:29.285Z,23.20
2022-07-30T12:21:35.469Z,23.00
2022-07-30T12:24:11.256Z,22.90
2022-07-30T12:27:31.368Z,22.90
2022-07-30T12:30:42.101Z,22.90
2022-07-30T12:33:18.380Z,22.80
2022-07-30T12:42:36.372Z,22.60
2022-07-30T12:46:22.727Z,22.60
2022-07-30T12:49:24.689Z,22.70
2022-07-30T12:52:48.360Z,22.70
2022-07-30T12:55:40.759Z,23.10
2022-07-30T12:58:20.954Z,22.60
2022-07-30T13:03:56.785Z,22.60
2022-07-30T13:06:46.067Z,22.60
2022-07-30T13:09:21.437Z,22.70
2022-07-30T13:11:51.767Z,22.60
2022-07-30T13:14:19.715Z,22.60
2022-07-30T13:16:55.533Z,22.60
2022-07-30T13:19:23.058Z,22.70
2022-07-30T13:21:50.578Z,22.60
2022-07-30T13:24:19.687Z,22.60
2022-07-30T13:26:47.416Z,22.60
2022-07-30T13:29:20.613Z,22.60
2022-07-30T13:31:48.370Z,22.70
2022-07-30T13:34:15.708Z,22.60
2022-07-30T13:36:43.470Z,22.70
2022-07-30T13:39:12.439Z,22.70
2022-07-30T13:41:43.506Z,22.70
2022-07-30T13:44:11.115Z,22.80
2022-07-30T13:46:41.309Z,22.80
2022-07-30T13:49:09.571Z,22.80
2022-07-30T13:51:37.045Z,22.90
2022-07-30T13:54:05.385Z,22.90
2022-07-30T13:56:33.689Z,22.80
2022-07-30T13:59:09.580Z,22.90
2022-07-30T14:01:36.930Z,22.80
2022-07-30T14:04:06.929Z,22.80
2022-07-30T14:06:36.632Z,22.80
2022-07-30T14:09:04.257Z,22.80
2022-07-30T14:11:32.467Z,22.80
2022-07-30T14:14:02.794Z,22.80
2022-07-30T14:16:45.477Z,22.80
2022-07-30T14:19:23.434Z,22.90
2022-07-30T14:21:53.386Z,22.80
2022-07-30T14:24:22.450Z,22.80
2022-07-30T14:26:57.337Z,22.80
2022-07-30T14:29:27.647Z,22.80
2022-07-30T14:31:55.972Z,22.80
2022-07-30T14:34:24.976Z,22.80
2022-07-30T14:36:56.441Z,22.70
2022-07-30T14:39:27.150Z,22.60
2022-07-30T14:41:58.532Z,22.50
2022-07-30T14:44:26.020Z,22.60
2022-07-30T14:46:54.469Z,22.30
2022-07-30T14:49:24.704Z,22.20
2022-07-30T14:51:53.533Z,22.10
2022-07-30T14:54:21.330Z,21.90
2022-07-30T14:56:52.601Z,21.80
2022-07-30T14:59:22.763Z,21.70
2022-07-30T15:01:50.453Z,22.10
2022-07-30T15:04:18.011Z,21.90
2022-07-30T15:06:45.618Z,21.50
2022-07-30T15:09:13.976Z,21.40
2022-07-30T15:12:07.698Z,21.40
2022-07-30T15:14:30.069Z,21.50
2022-07-30T15:17:03.964Z,21.30
2022-07-30T15:19:34.986Z,21.20
2022-07-30T15:22:03.350Z,21.10
2022-07-30T15:24:31.744Z,21.10
2022-07-30T15:27:00.546Z,21.10
2022-07-30T15:29:30.831Z,21.40
2022-07-30T15:32:00.996Z,21.10
2022-07-30T15:34:39.541Z,21.10
2022-07-30T15:37:07.575Z,20.90
2022-07-30T15:39:37.059Z,20.90
2022-07-30T15:42:06.663Z,20.90
2022-07-30T15:45:15.489Z,20.80
2022-07-30T15:47:39.330Z,20.70
2022-07-30T15:50:08.039Z,20.60
2022-07-30T15:52:36.933Z,20.50
2022-07-30T15:55:18.822Z,20.60
2022-07-30T15:57:48.485Z,20.50
2022-07-30T16:00:17.727Z,20.50
2022-07-30T16:02:46.233Z,20.40
2022-07-30T16:05:14.457Z,20.40
2022-07-30T16:07:43.316Z,20.40
2022-07-30T16:10:16.212Z,20.30
2022-07-30T16:12:45.562Z,20.30
2022-07-30T16:15:12.913Z,20.60
2022-07-30T16:17:45.083Z,20.30
2022-07-30T16:20:13.381Z,20.20
2022-07-30T16:22:43.573Z,20.20
2022-07-30T16:25:15.219Z,20.10
2022-07-30T16:27:42.942Z,20.20
2022-07-30T16:30:11.523Z,20.10
2022-07-30T16:32:39.367Z,20.10
2022-07-30T16:35:12.812Z,20.10
2022-07-30T16:37:43.029Z,20.00
2022-07-30T16:40:11.117Z,20.00
2022-07-30T16:42:38.243Z,19.90
2022-07-30T16:45:05.742Z,19.90
2022-07-30T16:47:36.476Z,19.80
2022-07-30T16:50:04.842Z,19.80
2022-07-30T16:52:32.934Z,19.70
2022-07-30T16:55:01.578Z,19.70
2022-07-30T16:57:30.380Z,19.70
2022-07-30T17:00:01.762Z,19.70
2022-07-30T17:02:32.129Z,19.70
2022-07-30T17:04:59.883Z,19.70
2022-07-30T17:07:28.646Z,19.70
2022-07-30T17:09:58.586Z,19.60
2022-07-30T17:12:27.816Z,19.70
2022-07-30T17:14:55.565Z,19.60
2022-07-30T17:17:23.423Z,19.90
2022-07-30T17:19:51.300Z,19.60
2022-07-30T17:22:19.017Z,19.50
2022-07-30T17:24:47.563Z,19.50
2022-07-30T17:27:16.204Z,19.50
2022-07-30T17:29:49.671Z,19.50
2022-07-30T17:32:21.559Z,19.70
2022-07-30T17:34:53.115Z,19.70
2022-07-30T17:37:22.185Z,19.40
2022-07-30T17:40:26.374Z,19.30
2022-07-30T17:42:46.656Z,19.30
2022-07-30T17:45:14.539Z,19.30
2022-07-30T17:47:42.029Z,19.30
2022-07-30T17:50:11.078Z,19.20
2022-07-30T17:52:40.330Z,19.30
2022-07-30T17:55:11.319Z,19.20
2022-07-30T17:57:39.979Z,19.10
2022-07-30T18:00:15.621Z,19.00
2022-07-30T18:02:45.071Z,19.10
2022-07-30T18:05:17.366Z,19.10
2022-07-30T18:07:47.555Z,19.20
2022-07-30T18:10:16.018Z,19.10
2022-07-30T18:12:49.196Z,18.90
2022-07-30T18:15:20.066Z,18.90
2022-07-30T18:17:50.744Z,18.90
2022-07-30T18:20:21.562Z,18.90
2022-07-30T18:22:52.272Z,18.70
2022-07-30T18:25:23.145Z,18.70
2022-07-30T18:27:52.011Z,18.70
2022-07-30T18:30:19.821Z,18.60
2022-07-30T18:32:49.916Z,18.60
2022-07-30T18:35:18.247Z,18.50
2022-07-30T18:40:32.865Z,18.40
2022-07-30T18:43:00.712Z,18.40
2022-07-30T18:45:30.373Z,18.30
2022-07-30T18:48:11.554Z,18.40
2022-07-30T18:53:41.398Z,18.40
2022-07-30T18:56:10.767Z,18.30
2022-07-30T18:58:39.252Z,18.20
2022-07-30T19:01:07.438Z,18.30
2022-07-30T19:03:35.823Z,18.20
2022-07-30T19:06:05.681Z,18.20
2022-07-30T19:08:33.627Z,18.20
2022-07-30T19:11:01.202Z,18.10
2022-07-30T19:13:29.126Z,18.30
2022-07-30T19:15:56.474Z,18.10
2022-07-30T19:18:23.944Z,18.00
2022-07-30T19:20:52.761Z,18.00
2022-07-30T19:23:21.603Z,18.00
2022-07-30T19:25:49.589Z,18.00
2022-07-30T19:28:18.067Z,18.00
2022-07-30T19:30:45.424Z,18.10
2022-07-30T19:33:15.739Z,18.00
2022-07-30T19:35:44.198Z,17.90
2022-07-30T19:38:21.407Z,17.90
2022-07-30T19:40:50.798Z,17.90
2022-07-30T19:43:23.160Z,17.90
2022-07-30T19:45:52.689Z,17.90
2022-07-30T19:48:28.903Z,18.00
2022-07-30T19:51:01.772Z,17.90
2022-07-30T19:53:31.149Z,17.80
2022-07-30T19:56:03.336Z,18.00
2022-07-30T19:58:33.889Z,17.80
2022-07-30T20:01:02.691Z,17.80
2022-07-30T20:03:37.117Z,17.70
2022-07-30T20:06:08.239Z,17.70
2022-07-30T20:08:36.575Z,17.70
2022-07-30T20:11:07.665Z,17.70
2022-07-30T20:13:44.519Z,17.70
2022-07-30T20:16:18.031Z,17.60
2022-07-30T20:18:47.618Z,17.60
2022-07-30T20:21:17.269Z,17.60
2022-07-30T20:23:45.277Z,17.60
2022-07-30T20:26:15.068Z,17.60
2022-07-30T20:28:45.663Z,18.00
2022-07-30T20:31:15.671Z,17.60
2022-07-30T20:33:50.066Z,17.60
2022-07-30T20:36:18.817Z,17.50
2022-07-30T20:38:47.237Z,17.60
2022-07-30T20:41:15.475Z,17.50
2022-07-30T20:43:51.646Z,17.60
2022-07-30T20:46:23.228Z,17.50
2022-07-30T20:48:54.572Z,17.50
2022-07-30T20:51:33.413Z,17.50
2022-07-30T20:54:01.749Z,17.50
2022-07-30T20:56:29.529Z,17.50
2022-07-30T20:58:57.529Z,17.50
2022-07-30T21:01:24.999Z,17.40
2022-07-30T21:03:54.150Z,17.40
2022-07-30T21:06:24.280Z,17.30
2022-07-30T21:08:56.584Z,17.30
2022-07-30T21:11:24.572Z,17.20
2022-07-30T21:13:55.071Z,17.20
2022-07-30T21:16:23.838Z,17.20
2022-07-30T21:18:51.873Z,17.20
2022-07-30T21:21:30.549Z,17.20
2022-07-30T21:24:11.822Z,17.20
2022-07-30T21:26:42.788Z,17.10
2022-07-30T21:29:11.032Z,17.10
2022-07-30T21:32:01.173Z,17.20
2022-07-30T21:34:30.847Z,17.10
2022-07-30T21:37:02.972Z,17.10
2022-07-30T21:39:30.844Z,17.20
2022-07-30T21:41:58.291Z,17.00
2022-07-30T21:44:25.676Z,17.00
2022-07-30T21:46:53.835Z,17.00
2022-07-30T21:49:23.044Z,17.70
2022-07-30T21:51:50.900Z,17.00
2022-07-30T21:57:06.295Z,16.90
2022-07-30T21:59:34.586Z,16.90
2022-07-30T22:02:02.158Z,17.40
2022-07-30T22:04:29.674Z,16.90
2022-07-30T22:07:00.625Z,16.80
2022-07-30T22:09:34.242Z,17.00
2022-07-30T22:12:06.325Z,16.80
2022-07-30T22:14:51.499Z,16.80
2022-07-30T22:17:23.809Z,16.80
2022-07-30T22:20:08.743Z,16.80
2022-07-30T22:22:39.471Z,16.70
2022-07-30T22:25:09.451Z,16.80
2022-07-30T22:27:39.982Z,16.70
2022-07-30T22:30:26.458Z,17.00
2022-07-30T22:32:55.131Z,16.70
2022-07-30T22:35:33.921Z,16.80
2022-07-30T22:38:10.316Z,16.80
2022-07-30T22:40:39.928Z,16.70
2022-07-30T22:43:12.629Z,16.70
2022-07-30T22:45:48.868Z,16.70
2022-07-30T22:48:19.695Z,16.70
2022-07-30T22:50:53.678Z,16.60
2022-07-30T22:54:10.841Z,16.60
2022-07-30T22:56:14.321Z,16.60
2022-07-30T22:58:43.476Z,16.50
2022-07-30T23:01:11.173Z,16.60
2022-07-30T23:03:38.316Z,16.60
2022-07-30T23:06:05.504Z,16.60
2022-07-30T23:08:34.035Z,16.60
2022-07-30T23:11:01.193Z,16.60
2022-07-30T23:12:27.818Z,17.00
2022-07-30T23:13:29.194Z,16.60
2022-07-30T23:15:56.787Z,16.60
2022-07-30T23:18:24.075Z,16.50
2022-07-30T23:20:51.484Z,16.50
2022-07-30T23:23:19.045Z,16.40
2022-07-30T23:25:46.145Z,16.40
2022-07-30T23:28:13.267Z,16.50
2022-07-30T23:30:40.609Z,16.40
2022-07-30T23:33:07.766Z,16.50
2022-07-30T23:35:35.169Z,16.30
2022-07-30T23:38:02.525Z,16.40
2022-07-30T23:40:29.978Z,16.40
2022-07-30T23:42:57.055Z,16.40
2022-07-30T23:45:24.405Z,16.40
2022-07-30T23:48:01.384Z,16.40
2022-07-30T23:50:32.411Z,16.50
2022-07-30T23:53:01.038Z,16.70
2022-07-30T23:55:29.390Z,16.50
2022-07-30T23:57:58.693Z,16.40
